Airfield :
LOGIN :

Register | Disclaimer

   EN    FR    IT 

 










Legend :    VFR   Marginal VFR   IFR   Intensive IFR   Very Intensive IFR
Visi :
Ceiling :
>= 8 km
>= 3000ft
5 to 8 km
1000 to 3000 ft
1500m to 5 km
500 to 1000 ft
800 to 1500m
200 to 500 ft
< 800m
< 200 ft
Symbols :   Thunderstorms  Fog  Heavy snow  Heavy precipitations  Wind > 20 kt
SIGMETs :     Misc.  Thunderstorms  Icing  Turbulence  Mountain Waves  Volcanic Ashes






- Airport Elevation : 157 ft
- IATA code : LIL


LFQQ - Lille Lesquin

CURRENT METAR :
  • 241200Z AUTO 19013KT 9999 BKN021 07/03 Q0999 NOSIG

EXPIRED METARs :
  • 241130Z AUTO 19014KT 9999 OVC021 07/03 Q0999 NOSIG
  • 241100Z AUTO 19014KT 9999 BKN018 OVC200 06/03 Q0998 TEMPO 4000 SHRA BKN014 BKN025TCU
  • 241030Z AUTO 20013KT 9999 BKN018 BKN210 06/03 Q0998 TEMPO 4000 SHRA BKN014 BKN025TCU
  • 241000Z AUTO 21012KT 9999 OVC017 06/03 Q0998 TEMPO 4000 SHRA BKN014 BKN025TCU
  • 240930Z AUTO 20012KT 9999 BKN016 BKN032 OVC043 05/02 Q0998 TEMPO 4000 SHRA BKN014 BKN025TCU
  • 240900Z AUTO 20011KT 9999 BKN014 OVC024 04/03 Q0997 TEMPO 4000 SHRA BKN014 BKN025TCU
  • 240830Z AUTO 20013KT 9999 -DZ BKN016 OVC021 04/02 Q0997 TEMPO BKN014 BKN025TCU
  • 240800Z AUTO 20013KT 9999 BKN021 BKN031 OVC110 04/02 Q0997 TEMPO BKN014 BKN025TCU
  • 240730Z AUTO 19012KT 9999 OVC021 04/02 Q0996 TEMPO BKN014 BKN025TCU

TAF TAF LFQQ
Valid from the 24 at 12:00 until the 25 at 18:00 UTC


241100Z 2412/2518 20013KT 9999 BKN020
TEMPO 2415/2423 3500 SHRA BKN014 BKN020TCU
PROB30
TEMPO 2415/2421 22015G25KT 2000 TSRAGS BKN011 BKN016CB
TEMPO 2423/2510 BKN009
PROB40
TEMPO 2500/2510 4000 -RA BKN006
TEMPO 2510/2512 BKN013
BECMG 2514/2517 10015KT 4000 RA OVC020
ATIS : +33 3 20 16 19 54



MET'MAP, your aeronautical weather chart ! - Copyright ORBIFLY December 2007 - Disclaimer

ORBIFLY MET'MAP TEAM :

Programming & Development : Alexandra Zaïnal
Original concept : Baudouin d'Aumeries
Technical & hardware support : Manuel Goepfert
Assistance : Marc-Olivier Méhu




SOURCES & CREDITS :

   NOAA